TimeEST,TemperatureF,Dew PointF,Humidity,Sea Level PressureIn,VisibilityMPH,Wind Direction,Wind SpeedMPH,Gust SpeedMPH,PrecipitationIn,Events,Conditions,WindDirDegrees,DateUTC
12:53 AM,8.1,-5.1,55,29.91,10.0,Variable,3.5,-,N/A,,Clear,0,2014-01-21 05:53:00
1:53 AM,8.1,-5.1,55,29.94,10.0,Variable,5.8,-,N/A,,Clear,0,2014-01-21 06:53:00
2:53 AM,7.0,-5.1,58,29.98,10.0,Variable,3.5,-,N/A,,Clear,0,2014-01-21 07:53:00
3:53 AM,6.1,-6.0,58,30.00,10.0,Variable,3.5,-,N/A,,Clear,0,2014-01-21 08:53:00
4:53 AM,6.1,-6.0,58,30.01,10.0,Variable,3.5,-,N/A,,Clear,0,2014-01-21 09:53:00
5:53 AM,5.0,-7.1,58,30.01,10.0,Variable,3.5,-,N/A,,Clear,0,2014-01-21 10:53:00
6:53 AM,3.0,-8.0,60,30.04,10.0,Variable,3.5,-,N/A,,Clear,0,2014-01-21 11:53:00
7:53 AM,3.0,-8.0,60,30.07,10.0,Calm,Calm,-,N/A,,Clear,0,2014-01-21 12:53:00
8:53 AM,5.0,-9.0,52,30.07,10.0,West,5.8,-,N/A,,Clear,270,2014-01-21 13:53:00
9:53 AM,7.0,-9.9,46,30.09,10.0,North,6.9,-,N/A,,Clear,10,2014-01-21 14:53:00
10:53 AM,9.0,-9.9,42,30.08,10.0,Variable,3.5,-,N/A,,Clear,0,2014-01-21 15:53:00
11:53 AM,10.9,-9.0,40,30.06,10.0,Variable,4.6,-,N/A,,Clear,0,2014-01-21 16:53:00
12:53 PM,10.9,-9.9,39,30.06,10.0,Variable,4.6,-,N/A,,Clear,0,2014-01-21 17:53:00
1:53 PM,12.9,-9.0,37,30.07,10.0,Variable,4.6,-,N/A,,Clear,0,2014-01-21 18:53:00
2:53 PM,12.9,-8.0,39,30.07,10.0,North,-9999.0,-,N/A,,Overcast,0,2014-01-21 19:53:00
3:53 PM,12.0,-7.1,42,30.05,10.0,Variable,3.5,-,N/A,,Overcast,0,2014-01-21 20:53:00
4:53 PM,10.9,-6.0,47,30.02,10.0,Calm,Calm,-,N/A,,Clear,0,2014-01-21 21:53:00
5:53 PM,10.9,-7.1,44,30.04,10.0,Variable,3.5,-,N/A,,Overcast,0,2014-01-21 22:53:00
6:53 PM,10.9,-6.0,47,30.05,10.0,Variable,3.5,-,N/A,,Overcast,0,2014-01-21 23:53:00
7:53 PM,10.9,-6.0,47,30.05,10.0,Variable,4.6,-,N/A,,Overcast,0,2014-01-22 00:53:00
8:53 PM,10.0,-6.0,48,30.04,10.0,North,4.6,-,N/A,,Overcast,10,2014-01-22 01:53:00
9:53 PM,9.0,-7.1,48,30.04,10.0,Variable,4.6,-,N/A,,Overcast,0,2014-01-22 02:53:00
10:53 PM,7.0,-9.0,48,30.02,10.0,NNE,9.2,-,N/A,,Overcast,20,2014-01-22 03:53:00
11:53 PM,6.1,-8.0,53,29.98,10.0,Variable,5.8,-,N/A,,Mostly Cloudy,0,2014-01-22 04:53:00